createdAt,value
2018-05-25T06:02:40.562Z,7.05
2018-05-25T06:05:09.267Z,13.80
2018-05-25T06:07:37.046Z,13.75
2018-05-25T06:10:04.709Z,15.02
2018-05-25T06:12:32.411Z,16.30
2018-05-25T06:15:00.079Z,15.85
2018-05-25T06:17:27.750Z,17.37
2018-05-25T06:19:56.285Z,18.07
2018-05-25T06:22:23.979Z,19.40
2018-05-25T06:24:51.649Z,20.27
2018-05-25T06:27:19.355Z,21.37
2018-05-25T06:29:47.038Z,20.00
2018-05-25T06:32:15.455Z,21.07
2018-05-25T06:34:43.168Z,21.10
2018-05-25T06:37:10.838Z,22.87
2018-05-25T06:39:38.509Z,22.13
2018-05-25T06:42:06.942Z,23.30
2018-05-25T06:44:34.593Z,23.77
2018-05-25T06:47:02.621Z,24.03
2018-05-25T06:49:30.318Z,24.07
2018-05-25T06:51:57.993Z,23.33
2018-05-25T06:54:25.681Z,23.63
2018-05-25T06:56:53.351Z,22.47
2018-05-25T06:59:20.993Z,21.37
2018-05-25T07:01:48.679Z,20.30
2018-05-25T07:04:16.351Z,20.53
2018-05-25T07:06:43.981Z,20.73
2018-05-25T07:09:11.670Z,23.03
2018-05-25T07:11:39.286Z,21.10
2018-05-25T07:14:06.990Z,21.23
2018-05-25T07:16:34.714Z,21.00
2018-05-25T07:19:02.392Z,20.87
2018-05-25T07:21:30.055Z,22.30
2018-05-25T07:23:57.719Z,20.87
2018-05-25T07:26:25.405Z,20.47
2018-05-25T07:28:53.062Z,20.97
2018-05-25T07:31:20.774Z,21.83
2018-05-25T07:33:48.454Z,20.97
2018-05-25T07:36:16.227Z,20.33
2018-05-25T07:38:44.464Z,23.13
2018-05-25T07:41:12.139Z,20.67
2018-05-25T07:43:39.781Z,21.77
2018-05-25T07:46:07.434Z,21.90
2018-05-25T07:48:35.890Z,22.00
2018-05-25T07:51:03.526Z,21.33
2018-05-25T07:53:31.904Z,23.60
2018-05-25T07:55:59.533Z,21.63
2018-05-25T07:58:27.247Z,22.87
2018-05-25T08:00:54.921Z,21.40
2018-05-25T08:03:22.573Z,21.73
2018-05-25T08:05:50.208Z,24.37
2018-05-25T08:08:17.868Z,24.63
2018-05-25T08:10:45.519Z,26.87
2018-05-25T08:13:13.190Z,24.87
2018-05-25T08:15:40.883Z,27.63
2018-05-25T08:18:08.554Z,26.20
2018-05-25T08:20:36.195Z,24.23
2018-05-25T08:23:03.862Z,25.40
2018-05-25T08:25:31.570Z,29.23
2018-05-25T08:27:59.978Z,36.10
2018-05-25T08:30:27.642Z,38.37
2018-05-25T08:32:55.278Z,35.33
2018-05-25T08:35:22.896Z,35.50
2018-05-25T08:37:50.524Z,36.20
2018-05-25T08:40:18.909Z,38.93
2018-05-25T08:42:46.605Z,36.93
2018-05-25T08:45:14.302Z,33.67
2018-05-25T08:47:42.780Z,35.97
2018-05-25T08:50:10.420Z,35.67
2018-05-25T08:52:38.117Z,35.17
2018-05-25T08:55:05.800Z,33.93
2018-05-25T08:57:33.506Z,37.23
2018-05-25T09:00:01.404Z,37.57
2018-05-25T09:02:28.985Z,35.07
2018-05-25T09:04:56.660Z,38.17
2018-05-25T09:07:24.326Z,36.90
2018-05-25T09:09:52.022Z,41.53
2018-05-25T09:12:19.732Z,36.10
2018-05-25T09:14:47.462Z,36.27
2018-05-25T09:17:15.910Z,38.50
2018-05-25T09:19:43.595Z,38.47
2018-05-25T09:22:12.079Z,35.87
2018-05-25T09:24:40.513Z,38.93
2018-05-25T09:27:08.230Z,40.90
2018-05-25T09:29:35.982Z,40.83
2018-05-25T09:32:03.648Z,36.83
2018-05-25T09:34:32.131Z,38.20
2018-05-25T09:36:59.817Z,39.50
2018-05-25T09:39:28.249Z,41.23
2018-05-25T09:41:55.896Z,44.10
2018-05-25T09:44:23.518Z,46.97
2018-05-25T09:46:51.218Z,38.63
2018-05-25T09:49:18.919Z,32.83
2018-05-25T09:51:46.569Z,32.37
2018-05-25T09:54:14.298Z,36.20
2018-05-25T09:56:53.709Z,35.37
2018-05-25T09:59:21.379Z,39.23
2018-05-25T10:01:49.118Z,36.07
2018-05-25T10:04:17.581Z,38.57
2018-05-25T10:06:45.289Z,37.57
2018-05-25T10:09:12.918Z,37.67
2018-05-25T10:11:40.571Z,37.93
2018-05-25T10:14:08.210Z,37.63
2018-05-25T10:16:35.868Z,37.30
2018-05-25T10:19:03.525Z,36.07
2018-05-25T10:21:31.241Z,34.23
2018-05-25T10:23:58.928Z,30.07
2018-05-25T10:26:26.605Z,33.33
2018-05-25T10:28:54.243Z,29.40
2018-05-25T10:31:21.941Z,27.40
2018-05-25T10:33:49.708Z,29.10
2018-05-25T10:36:17.382Z,30.90
2018-05-25T10:38:45.054Z,28.17
2018-05-25T10:41:12.810Z,29.00
2018-05-25T10:43:40.420Z,25.80
2018-05-25T10:46:08.089Z,26.67
2018-05-25T10:48:35.811Z,21.97
2018-05-25T10:51:04.383Z,24.93
2018-05-25T10:53:32.054Z,23.80
2018-05-25T10:55:59.709Z,23.00
2018-05-25T10:58:27.371Z,23.97
2018-05-25T11:00:55.078Z,23.53
2018-05-25T11:03:22.731Z,24.07
2018-05-25T11:05:50.457Z,24.73
2018-05-25T11:08:18.607Z,24.70
2018-05-25T11:10:46.276Z,26.27
2018-05-25T11:13:13.984Z,22.20
2018-05-25T11:15:41.670Z,24.63
2018-05-25T11:18:09.361Z,25.03
2018-05-25T11:20:37.686Z,21.17
2018-05-25T11:23:05.369Z,20.47
2018-05-25T11:25:33.108Z,19.37
2018-05-25T11:28:00.851Z,18.70
2018-05-25T11:30:28.542Z,18.50
2018-05-25T11:32:56.203Z,18.07
2018-05-25T11:35:23.865Z,13.67
2018-05-25T11:37:51.617Z,14.97
2018-05-25T11:40:20.123Z,12.83
2018-05-25T11:42:47.767Z,12.20
2018-05-25T11:45:15.541Z,9.47
2018-05-25T11:47:43.274Z,11.03
2018-05-25T11:50:10.955Z,10.80
2018-05-25T11:52:39.371Z,10.60
2018-05-25T11:55:07.053Z,10.30
2018-05-25T11:57:34.755Z,10.53
2018-05-25T12:00:02.954Z,10.30
2018-05-25T12:02:30.614Z,11.20
2018-05-25T12:04:58.296Z,10.37
2018-05-25T12:07:26.026Z,9.83
2018-05-25T12:09:53.663Z,9.90
2018-05-25T12:12:21.332Z,9.83
2018-05-25T12:14:49.726Z,9.67
2018-05-25T12:17:18.194Z,9.40
2018-05-25T12:19:46.689Z,8.27
2018-05-25T12:22:14.330Z,9.13
2018-05-25T12:24:42.065Z,8.90
2018-05-25T12:27:09.722Z,8.97
2018-05-25T12:29:37.710Z,8.03
2018-05-25T12:32:05.371Z,7.70
2018-05-25T12:34:33.024Z,7.57
2018-05-25T12:37:00.703Z,8.23
2018-05-25T12:39:28.352Z,8.80
2018-05-25T12:41:56.027Z,8.27
2018-05-25T12:44:23.676Z,6.73
2018-05-25T12:46:51.325Z,6.30
2018-05-25T12:49:18.963Z,7.30
2018-05-25T12:51:47.410Z,6.50
2018-05-25T12:54:15.110Z,6.10
2018-05-25T12:56:42.858Z,6.97
2018-05-25T12:59:10.523Z,5.97
2018-05-25T13:01:38.218Z,5.53
2018-05-25T13:04:06.023Z,6.20
2018-05-25T13:06:33.709Z,6.03
2018-05-25T13:09:01.362Z,5.15
2018-05-25T13:11:29.311Z,5.30
2018-05-25T13:13:57.071Z,4.78
2018-05-25T13:16:24.732Z,4.68
2018-05-25T13:18:52.490Z,4.82
2018-05-25T13:21:20.224Z,4.50
2018-05-25T13:23:47.892Z,4.53
2018-05-25T13:26:15.660Z,4.60
2018-05-25T13:28:43.332Z,4.18
2018-05-25T13:31:11.103Z,4.37
2018-05-25T13:33:38.866Z,3.78
2018-05-25T13:36:06.615Z,4.10
2018-05-25T13:38:35.592Z,3.90
2018-05-25T13:41:03.391Z,3.92
2018-05-25T13:43:31.323Z,4.37
2018-05-25T13:45:59.079Z,4.18
2018-05-25T13:48:26.913Z,4.57
2018-05-25T13:50:54.633Z,4.15
2018-05-25T13:53:22.342Z,4.18
2018-05-25T13:55:50.758Z,4.43
2018-05-25T13:58:18.415Z,3.97
2018-05-25T14:00:46.063Z,4.37
2018-05-25T14:03:13.792Z,3.90
2018-05-25T14:05:41.514Z,4.15
2018-05-25T14:08:09.254Z,4.03
2018-05-25T14:10:36.971Z,3.80
2018-05-25T14:13:04.613Z,4.47
2018-05-25T14:15:32.282Z,3.80
2018-05-25T14:17:59.943Z,3.37
2018-05-25T14:20:27.676Z,3.58
2018-05-25T14:22:55.457Z,4.12
2018-05-25T14:25:23.140Z,3.60
2018-05-25T14:27:50.780Z,3.42
2018-05-25T14:30:18.533Z,4.20
2018-05-25T14:32:46.246Z,3.47
2018-05-25T14:35:13.945Z,3.42
2018-05-25T14:37:41.724Z,3.83
2018-05-25T14:40:09.429Z,3.43
2018-05-25T14:42:37.486Z,3.47
2018-05-25T14:45:05.199Z,3.53
2018-05-25T14:47:32.891Z,3.53
2018-05-25T14:50:01.887Z,3.47
2018-05-25T14:52:29.815Z,3.20
2018-05-25T14:54:57.768Z,3.50
2018-05-25T14:57:25.511Z,3.62
2018-05-25T14:59:53.302Z,3.37
2018-05-25T15:02:21.572Z,3.25
2018-05-25T15:04:49.484Z,4.77
2018-05-25T15:07:17.214Z,3.17
2018-05-25T15:09:45.818Z,4.05
2018-05-25T15:12:13.551Z,3.22
2018-05-25T15:14:42.074Z,4.78
2018-05-25T15:17:09.811Z,13.23
2018-05-25T15:19:37.478Z,8.70
2018-05-25T15:22:05.572Z,3.90
2018-05-25T15:24:33.346Z,3.78
2018-05-25T15:27:01.266Z,5.28
2018-05-25T15:29:30.377Z,4.40
2018-05-25T15:31:59.196Z,3.90
2018-05-25T15:34:27.393Z,3.30
2018-05-25T15:36:55.493Z,3.92
2018-05-25T15:39:23.178Z,3.75
2018-05-25T15:41:50.936Z,4.55
2018-05-25T15:44:19.375Z,4.00
2018-05-25T15:46:47.203Z,4.05
2018-05-25T15:49:15.004Z,3.90
2018-05-25T15:51:42.722Z,4.20
2018-05-25T15:54:10.363Z,3.53
2018-05-25T15:56:38.158Z,3.95
2018-05-25T15:59:05.857Z,4.00
2018-05-25T16:01:33.650Z,3.63
2018-05-25T16:04:01.392Z,3.63
2018-05-25T16:06:29.081Z,3.65
2018-05-25T16:08:57.565Z,3.65
2018-05-25T16:11:26.177Z,3.70
2018-05-25T16:13:54.547Z,3.65
2018-05-25T16:16:22.819Z,3.90
2018-05-25T16:18:50.905Z,3.80
2018-05-25T16:21:18.757Z,3.50
2018-05-25T16:23:46.779Z,3.65
2018-05-25T16:26:14.425Z,4.90
2018-05-25T16:28:42.192Z,5.90
2018-05-25T16:31:09.821Z,4.80
2018-05-25T16:33:37.485Z,4.20
2018-05-25T16:36:06.537Z,3.70
2018-05-25T16:38:34.233Z,4.00
2018-05-25T16:41:02.601Z,4.07
2018-05-25T16:43:31.007Z,4.00
2018-05-25T16:45:58.733Z,3.60
2018-05-25T16:48:28.103Z,3.85
2018-05-25T16:50:57.098Z,3.87
2018-05-25T16:53:24.757Z,3.75
2018-05-25T16:55:52.988Z,3.92
2018-05-25T16:58:20.668Z,4.32
2018-05-25T17:00:49.451Z,4.70
2018-05-25T17:03:17.195Z,4.53
2018-05-25T17:05:44.883Z,4.70
2018-05-25T17:08:13.977Z,6.00
2018-05-25T17:10:41.839Z,5.53
2018-05-25T17:13:09.498Z,4.63
2018-05-25T17:15:37.159Z,4.93
2018-05-25T17:18:07.182Z,5.07
2018-05-25T17:20:34.890Z,4.63
2018-05-25T17:23:02.581Z,4.90
2018-05-25T17:25:30.569Z,4.83
2018-05-25T17:27:58.442Z,5.83
2018-05-25T17:30:26.243Z,5.67
2018-05-25T17:32:53.980Z,4.80
2018-05-25T17:35:22.949Z,5.13
2018-05-25T17:37:50.803Z,5.82
2018-05-25T17:40:18.630Z,5.47
2018-05-25T17:42:46.287Z,5.20
2018-05-25T17:45:14.460Z,6.23
2018-05-25T17:47:42.380Z,6.45
2018-05-25T17:50:10.190Z,5.83
2018-05-25T17:52:38.443Z,5.43
2018-05-25T17:55:06.330Z,5.53
2018-05-25T17:57:34.119Z,5.40
2018-05-25T18:00:01.989Z,4.73
2018-05-25T18:02:29.668Z,4.47
2018-05-25T18:04:57.379Z,5.57
2018-05-25T18:07:25.095Z,6.72
2018-05-25T18:09:52.787Z,5.07
2018-05-25T18:12:20.491Z,5.37
2018-05-25T18:14:48.235Z,5.27
2018-05-25T18:17:15.938Z,6.50
2018-05-25T18:19:43.709Z,7.80
2018-05-25T18:22:11.377Z,9.03
2018-05-25T18:24:39.783Z,6.60
2018-05-25T18:27:07.505Z,6.97
2018-05-25T18:29:35.139Z,7.00
2018-05-25T18:32:02.796Z,7.50
2018-05-25T18:34:30.514Z,5.80
2018-05-25T18:36:58.228Z,6.30
2018-05-25T18:39:25.940Z,6.43
2018-05-25T18:41:53.650Z,5.97
2018-05-25T18:44:21.403Z,6.00
2018-05-25T18:46:49.290Z,6.30
2018-05-25T18:49:16.980Z,6.70
2018-05-25T18:51:45.433Z,6.77
2018-05-25T18:54:24.946Z,8.23
2018-05-25T18:56:52.658Z,7.73
2018-05-25T18:59:20.392Z,7.60
2018-05-25T19:01:48.103Z,7.97
2018-05-25T19:04:15.817Z,9.67
2018-05-25T19:06:43.564Z,8.37
2018-05-25T19:09:11.296Z,9.30
2018-05-25T19:11:39.027Z,7.23
2018-05-25T19:14:07.640Z,8.30
2018-05-25T19:16:35.405Z,8.53
2018-05-25T19:19:03.823Z,7.90
2018-05-25T19:21:31.518Z,9.50
2018-05-25T19:23:59.261Z,9.60
2018-05-25T19:26:27.030Z,10.30
2018-05-25T19:28:54.719Z,9.53
2018-05-25T19:31:23.188Z,10.40
2018-05-25T19:33:50.881Z,8.60
2018-05-25T19:36:18.634Z,9.43
2018-05-25T19:38:46.398Z,9.00
2018-05-25T19:41:15.019Z,9.37
2018-05-25T19:43:42.677Z,8.53
2018-05-25T19:46:10.353Z,8.63
2018-05-25T19:48:38.063Z,8.87
2018-05-25T19:51:06.551Z,8.73
2018-05-25T19:53:34.254Z,8.03
2018-05-25T19:56:02.016Z,8.73
2018-05-25T19:58:29.746Z,9.03
2018-05-25T20:00:58.730Z,10.10
2018-05-25T20:03:26.577Z,9.27
2018-05-25T20:05:54.762Z,10.37
2018-05-25T20:08:22.490Z,10.33
2018-05-25T20:10:50.159Z,8.93
2018-05-25T20:13:17.908Z,8.70
2018-05-25T20:15:46.267Z,8.50
2018-05-25T20:18:13.956Z,9.40
2018-05-25T20:20:42.345Z,9.57
2018-05-25T20:23:10.161Z,9.73
2018-05-25T20:25:37.848Z,8.93
2018-05-25T20:28:05.536Z,9.13
2018-05-25T20:30:33.276Z,10.20
2018-05-25T20:33:01.813Z,10.17
2018-05-25T20:35:29.526Z,9.57
2018-05-25T20:37:57.225Z,9.60
2018-05-25T20:40:25.085Z,9.53
2018-05-25T20:42:52.941Z,12.33
2018-05-25T20:45:20.676Z,11.53
2018-05-25T20:47:48.330Z,10.23
2018-05-25T20:50:16.091Z,10.43
2018-05-25T20:52:44.649Z,10.93
2018-05-25T20:55:12.307Z,11.13
2018-05-25T20:57:40.002Z,10.57
2018-05-25T21:00:07.666Z,9.27
2018-05-25T21:02:35.403Z,9.03
2018-05-25T21:05:03.156Z,7.90
2018-05-25T21:07:30.951Z,8.67
2018-05-25T21:09:58.706Z,9.73
2018-05-25T21:12:27.169Z,9.30
2018-05-25T21:14:54.890Z,9.37
2018-05-25T21:17:22.614Z,10.60
2018-05-25T21:19:51.054Z,11.23
2018-05-25T21:22:18.816Z,10.23
2018-05-25T21:24:47.298Z,10.63
2018-05-25T21:27:15.002Z,10.17
2018-05-25T21:29:43.490Z,10.50
2018-05-25T21:32:11.142Z,11.37
2018-05-25T21:34:39.588Z,12.53
2018-05-25T21:37:07.233Z,11.47
2018-05-25T21:39:35.888Z,12.00
2018-05-25T21:42:03.557Z,11.40
2018-05-25T21:44:31.280Z,10.37
2018-05-25T21:46:58.970Z,10.63
2018-05-25T21:49:26.646Z,10.13
2018-05-25T21:51:54.448Z,9.30
2018-05-25T21:54:22.145Z,9.73
2018-05-25T21:56:49.812Z,8.73
2018-05-25T21:59:17.526Z,9.07
2018-05-25T22:01:45.195Z,9.80
2018-05-25T22:04:12.906Z,9.30
2018-05-25T22:06:40.548Z,9.20
2018-05-25T22:09:09.044Z,9.43
2018-05-25T22:11:37.448Z,8.87
2018-05-25T22:14:05.210Z,8.37
2018-05-25T22:16:32.934Z,8.60
2018-05-25T22:19:00.620Z,8.40
2018-05-25T22:21:28.415Z,8.70
2018-05-25T22:23:56.114Z,8.87
2018-05-25T22:26:23.807Z,8.33
2018-05-25T22:28:51.478Z,8.00
2018-05-25T22:31:19.215Z,9.07
2018-05-25T22:33:46.989Z,9.00
2018-05-25T22:36:15.509Z,8.80
2018-05-25T22:38:43.194Z,8.40
2018-05-25T22:41:10.898Z,8.90
2018-05-25T22:43:51.015Z,8.53
2018-05-25T22:46:30.582Z,8.07
2018-05-25T22:49:10.739Z,7.33
2018-05-25T22:51:50.273Z,9.00
2018-05-25T22:54:42.257Z,8.70
2018-05-25T22:57:09.969Z,9.90
2018-05-25T22:59:38.442Z,9.30
2018-05-25T23:02:06.927Z,8.90
2018-05-25T23:04:34.574Z,8.50
2018-05-25T23:07:02.226Z,9.37
2018-05-25T23:09:30.738Z,8.40
2018-05-25T23:11:59.169Z,9.27
2018-05-25T23:14:26.807Z,9.57
2018-05-25T23:16:54.551Z,9.57
2018-05-25T23:19:22.326Z,8.30
2018-05-25T23:21:49.982Z,8.43
2018-05-25T23:24:17.695Z,8.07
2018-05-25T23:26:45.465Z,8.73
2018-05-25T23:29:13.112Z,7.93
2018-05-25T23:31:40.785Z,7.77
2018-05-25T23:34:08.506Z,7.67
2018-05-25T23:36:36.196Z,8.03
2018-05-25T23:39:03.946Z,6.93
2018-05-25T23:41:31.643Z,7.63
2018-05-25T23:43:59.324Z,7.43
2018-05-25T23:46:26.984Z,7.40
2018-05-25T23:48:54.657Z,7.73
2018-05-25T23:51:22.408Z,7.63
2018-05-25T23:53:50.039Z,7.70
2018-05-25T23:56:17.716Z,7.40
2018-05-25T23:58:45.447Z,8.40
